Time;durP1;ratioP1;P1;durP2;ratioP2;P2;SDS_P1;SDS_P2;PMS_P1;PMS_P2;Temp;Humidity;BMP_temperature;BMP_pressure;BME280_temperature;BME280_humidity;BME280_pressure;Samples;Min_cycle;Max_cycle;Signal;HPM_P1;HPM_P2
2021/10/15 00:01:53;;;;;;;9.57;4.00;;;;;;;14.54;78.64;100676.41;5055678;28;20191;-69
2021/10/15 00:04:18;;;;;;;8.27;4.70;;;;;;;14.36;79.81;100679.38;5070980;28;20180;-69
2021/10/15 00:06:43;;;;;;;6.37;4.33;;;;;;;14.21;81.28;100663.50;5055539;28;20713;-69
2021/10/15 00:09:09;;;;;;;10.13;4.73;;;;;;;14.51;80.33;100674.78;5054251;28;20176;-69
2021/10/15 00:11:34;;;;;;;8.63;5.03;;;;;;;14.43;80.74;100666.41;5055036;28;20199;-69
2021/10/15 00:13:59;;;;;;;7.03;4.40;;;;;;;14.69;79.60;100669.91;5055470;28;20607;-69
2021/10/15 00:16:24;;;;;;;9.80;4.60;;;;;;;14.29;79.75;100653.94;5054489;28;20283;-69
2021/10/15 00:18:50;;;;;;;7.83;5.00;;;;;;;14.57;80.25;100663.59;5055418;28;20176;-69
2021/10/15 00:21:15;;;;;;;9.53;4.80;;;;;;;14.31;81.36;100646.63;5053976;28;20179;-69
2021/10/15 00:23:40;;;;;;;8.93;4.53;;;;;;;14.40;81.17;100645.13;5054303;28;20195;-70
2021/10/15 00:26:06;;;;;;;8.77;5.13;;;;;;;14.30;81.04;100644.06;5055078;28;20187;-69
2021/10/15 00:28:31;;;;;;;7.07;5.60;;;;;;;14.36;82.00;100640.94;5054345;28;20180;-69
2021/10/15 00:30:58;;;;;;;7.03;4.87;;;;;;;14.72;80.83;100641.97;5055336;28;20183;-69
2021/10/15 00:33:24;;;;;;;8.73;5.67;;;;;;;14.45;81.18;100637.63;5055157;28;20291;-69
2021/10/15 00:35:49;;;;;;;9.87;5.30;;;;;;;14.35;82.37;100637.38;5054150;28;20544;-71
2021/10/15 00:38:14;;;;;;;9.63;5.60;;;;;;;14.54;82.36;100631.59;5055159;28;20179;-69
2021/10/15 00:40:39;;;;;;;12.50;6.00;;;;;;;14.13;83.99;100631.84;5055041;28;20172;-69
2021/10/15 00:43:05;;;;;;;9.17;6.33;;;;;;;13.78;85.51;100626.28;5054414;28;20195;-69
2021/10/15 00:45:30;;;;;;;9.17;6.43;;;;;;;13.95;85.05;100631.31;5055786;28;20233;-69
2021/10/15 00:47:55;;;;;;;9.97;5.73;;;;;;;14.32;84.22;100626.88;5054344;28;20198;-69
2021/10/15 00:50:21;;;;;;;13.03;7.53;;;;;;;13.93;85.05;100618.97;5054217;28;20197;-69
2021/10/15 00:52:46;;;;;;;12.27;7.63;;;;;;;14.21;84.59;100613.38;5054796;28;20215;-69
2021/10/15 00:55:12;;;;;;;14.93;7.90;;;;;;;14.28;84.60;100603.06;5053541;28;20195;-69
2021/10/15 00:57:37;;;;;;;13.77;8.43;;;;;;;14.44;83.95;100602.81;5054720;28;20172;-69
2021/10/15 01:00:03;;;;;;;14.10;8.93;;;;;;;14.11;84.63;100595.31;5054796;28;20210;-70
2021/10/15 01:02:28;;;;;;;13.87;8.63;;;;;;;14.53;84.37;100600.34;5054439;28;20776;-69
2021/10/15 01:04:55;;;;;;;12.57;10.70;;;;;;;14.38;85.15;100596.03;5036808;28;20195;-69
2021/10/15 01:07:21;;;;;;;14.80;10.47;;;;;;;14.22;85.12;100590.94;5054847;28;20180;-69
2021/10/15 01:09:46;;;;;;;17.30;11.33;;;;;;;14.54;84.22;100593.16;5053622;28;20590;-69
2021/10/15 01:12:11;;;;;;;18.00;10.77;;;;;;;14.73;83.80;100592.63;5053147;28;20199;-68
2021/10/15 01:14:37;;;;;;;18.97;10.97;;;;;;;14.80;83.27;100584.00;5058378;28;20226;-68
2021/10/15 01:17:03;;;;;;;17.40;11.03;;;;;;;14.27;84.24;100569.97;5060775;28;20179;-69
2021/10/15 01:19:29;;;;;;;18.27;13.07;;;;;;;14.48;85.37;100577.47;5054676;28;20175;-69
2021/10/15 01:21:58;;;;;;;20.90;13.87;;;;;;;14.58;85.02;100568.63;5054161;28;20204;-69
2021/10/15 01:24:24;;;;;;;20.03;13.80;;;;;;;14.43;84.92;100572.44;5054022;28;20164;-69
2021/10/15 01:26:49;;;;;;;20.97;14.10;;;;;;;14.77;83.80;100567.25;5054003;28;20225;-68
2021/10/15 01:29:14;;;;;;;22.73;15.57;;;;;;;14.47;84.46;100571.22;5054188;28;20545;-69
2021/10/15 01:31:40;;;;;;;20.87;14.43;;;;;;;14.56;84.41;100558.97;5054068;28;20278;-69
2021/10/15 01:34:05;;;;;;;21.97;16.23;;;;;;;14.57;84.14;100561.56;5052768;28;20191;-70
2021/10/15 01:36:30;;;;;;;19.40;14.97;;;;;;;14.63;84.15;100547.66;5053138;28;20233;-69
2021/10/15 01:38:55;;;;;;;27.27;16.93;;;;;;;14.60;84.48;100539.84;5053714;28;20572;-69
2021/10/15 01:41:21;;;;;;;21.07;17.30;;;;;;;14.91;83.33;100545.59;5053858;28;20575;-69
2021/10/15 01:43:47;;;;;;;24.43;17.47;;;;;;;14.84;83.46;100541.63;5052677;28;20163;-69
2021/10/15 01:46:12;;;;;;;23.97;18.30;;;;;;;14.95;82.93;100544.41;5052605;28;20175;-69
2021/10/15 01:48:37;;;;;;;21.60;17.37;;;;;;;15.10;82.28;100526.25;5052339;28;20176;-68
2021/10/15 01:51:03;;;;;;;28.00;18.00;;;;;;;14.75;82.86;100524.38;5035606;28;20176;-68
2021/10/15 01:53:28;;;;;;;25.10;18.53;;;;;;;14.96;82.57;100511.19;5053116;28;20202;-68
2021/10/15 01:55:54;;;;;;;29.57;19.03;;;;;;;14.83;83.36;100518.44;5053382;28;20168;-68
2021/10/15 01:58:19;;;;;;;24.37;19.30;;;;;;;14.95;82.88;100498.72;5053332;28;20171;-68
2021/10/15 02:00:46;;;;;;;25.20;18.60;;;;;;;14.94;82.88;100505.91;5052105;28;20253;-68
2021/10/15 02:03:12;;;;;;;29.13;19.70;;;;;;;14.86;82.91;100491.34;5035353;28;20183;-68
2021/10/15 02:05:37;;;;;;;26.17;19.03;;;;;;;14.50;84.71;100487.78;5053584;28;20198;-68
2021/10/15 02:08:03;;;;;;;26.13;19.30;;;;;;;14.75;83.65;100483.25;5052298;28;20663;-68
2021/10/15 02:10:28;;;;;;;27.40;20.00;;;;;;;14.81;83.41;100472.03;5053153;28;20172;-69
2021/10/15 02:12:54;;;;;;;24.53;18.17;;;;;;;14.63;83.63;100480.50;5051947;28;20550;-68
2021/10/15 02:15:19;;;;;;;23.97;18.63;;;;;;;14.68;83.94;100466.72;5053080;28;20191;-73
2021/10/15 02:17:44;;;;;;;29.67;20.63;;;;;;;14.79;83.31;100474.81;5053032;28;20187;-68
2021/10/15 02:20:12;;;;;;;25.17;19.77;;;;;;;14.86;83.38;100465.31;5053125;28;20210;-68
2021/10/15 02:22:39;;;;;;;26.83;19.80;;;;;;;14.76;83.46;100453.56;5035194;28;20293;-68
2021/10/15 02:25:06;;;;;;;26.87;19.63;;;;;;;14.83;83.40;100452.13;5051884;28;20171;-68
2021/10/15 02:27:31;;;;;;;26.00;19.67;;;;;;;14.83;82.76;100452.13;5051808;28;20171;-69
2021/10/15 02:29:56;;;;;;;26.30;19.97;;;;;;;15.19;nan;100448.44;5053100;28;20179;-69
2021/10/15 02:32:22;;;;;;;26.70;20.63;;;;;;;14.83;83.09;100446.75;5052954;28;20676;-69
2021/10/15 02:34:47;;;;;;;25.73;19.53;;;;;;;14.75;83.74;100438.44;5057025;28;20196;-69
2021/10/15 02:37:12;;;;;;;25.40;20.47;;;;;;;14.74;83.38;100449.28;5057264;28;20171;-69
2021/10/15 02:39:37;;;;;;;30.50;20.10;;;;;;;14.93;82.32;100434.34;5057074;28;20205;-69
2021/10/15 02:42:03;;;;;;;26.47;19.00;;;;;;;14.79;82.93;100431.00;5057103;28;20194;-69
2021/10/15 02:44:29;;;;;;;27.00;20.40;;;;;;;14.97;82.61;100421.53;5056042;28;20202;-69
2021/10/15 02:46:54;;;;;;;25.13;20.07;;;;;;;15.03;81.63;100423.72;5057355;28;20175;-69
2021/10/15 02:49:19;;;;;;;24.00;19.43;;;;;;;14.63;82.90;100404.47;5055828;28;20182;-69
2021/10/15 02:51:45;;;;;;;26.97;20.67;;;;;;;14.98;81.88;100415.16;5057584;28;20199;-68
2021/10/15 02:54:10;;;;;;;26.77;21.33;;;;;;;14.89;82.37;100406.00;5057106;28;20550;-69
2021/10/15 02:56:35;;;;;;;27.33;21.27;;;;;;;14.79;82.60;100410.34;5055652;28;20182;-69
2021/10/15 02:59:01;;;;;;;27.43;21.80;;;;;;;14.89;82.18;100394.41;5059142;28;20638;-68
2021/10/15 03:01:26;;;;;;;31.20;22.73;;;;;;;14.59;83.77;100397.59;5056891;28;20191;-68
2021/10/15 03:03:51;;;;;;;26.43;21.80;;;;;;;14.53;83.94;100404.31;5057261;28;20171;-68
2021/10/15 03:06:17;;;;;;;28.63;23.00;;;;;;;14.44;83.42;100391.56;5056732;28;20246;-68
2021/10/15 03:08:42;;;;;;;27.20;21.63;;;;;;;14.80;83.47;100401.31;5056735;28;20172;-70
2021/10/15 03:11:08;;;;;;;30.73;22.53;;;;;;;14.55;84.33;100391.63;5055408;28;20195;-67
2021/10/15 03:13:33;;;;;;;28.50;22.00;;;;;;;14.65;83.30;100383.72;5055525;28;20195;-70
2021/10/15 03:15:59;;;;;;;30.80;22.97;;;;;;;14.52;84.11;100385.63;5056169;28;20591;-68
2021/10/15 03:18:24;;;;;;;32.43;23.17;;;;;;;14.64;83.65;100369.41;5056046;28;20637;-68
2021/10/15 03:20:49;;;;;;;30.37;22.23;;;;;;;14.64;83.68;100374.78;5058200;28;20183;-67
2021/10/15 03:23:15;;;;;;;28.90;23.70;;;;;;;14.67;83.84;100371.00;5057071;28;20195;-67
2021/10/15 03:25:40;;;;;;;31.67;23.23;;;;;;;14.56;84.09;100376.38;5055795;28;20186;-68
2021/10/15 03:28:05;;;;;;;31.00;23.93;;;;;;;14.48;84.62;100350.06;5056617;28;20604;-68
2021/10/15 03:30:31;;;;;;;29.10;22.77;;;;;;;14.56;84.14;100361.09;5056669;28;20245;-68
2021/10/15 03:32:57;;;;;;;28.50;21.97;;;;;;;14.56;83.62;100361.09;5056047;28;20716;-68
2021/10/15 03:35:22;;;;;;;25.90;22.33;;;;;;;14.69;83.21;100361.84;5056275;28;20199;-68
2021/10/15 03:37:47;;;;;;;31.17;21.80;;;;;;;14.82;82.97;100371.66;5055899;28;20262;-70
2021/10/15 03:40:13;;;;;;;28.87;21.27;;;;;;;14.63;84.07;100367.72;5056337;28;20642;-68
2021/10/15 03:42:39;;;;;;;24.83;21.00;;;;;;;14.61;83.90;100358.06;5055355;28;20202;-68
2021/10/15 03:45:05;;;;;;;27.40;21.07;;;;;;;14.72;83.04;100358.06;5054730;28;20258;-69
2021/10/15 03:47:31;;;;;;;27.33;21.10;;;;;;;14.56;83.39;100344.13;5055478;28;20596;-69
2021/10/15 03:49:57;;;;;;;26.23;20.17;;;;;;;14.46;83.63;100365.44;5054794;28;20676;-68
2021/10/15 03:52:22;;;;;;;27.93;20.97;;;;;;;14.70;82.58;100351.97;5054425;28;20200;-68
2021/10/15 03:54:47;;;;;;;26.67;19.77;;;;;;;14.72;82.86;100349.16;5055637;28;20203;-69
2021/10/15 03:57:13;;;;;;;26.13;20.13;;;;;;;14.95;82.57;100350.91;5055756;28;20183;-69
2021/10/15 03:59:38;;;;;;;30.43;20.00;;;;;;;14.41;84.29;100335.38;5055860;28;20183;-67
2021/10/15 04:02:03;;;;;;;24.73;19.33;;;;;;;14.48;83.82;100352.75;5054139;28;20200;-68
2021/10/15 04:04:29;;;;;;;27.70;19.13;;;;;;;14.45;83.46;100347.63;5054569;28;20593;-68
2021/10/15 04:06:56;;;;;;;24.17;19.03;;;;;;;14.43;83.17;100341.50;5055928;28;20180;-67
2021/10/15 04:09:21;;;;;;;27.47;19.07;;;;;;;14.68;82.34;100332.44;5054637;28;20175;-68
2021/10/15 04:11:46;;;;;;;23.77;17.93;;;;;;;14.80;82.65;100333.31;5055830;28;20241;-69
2021/10/15 04:14:12;;;;;;;19.07;14.27;;;;;;;14.22;83.35;100329.72;5054378;28;20286;-68
2021/10/15 04:16:37;;;;;;;24.80;17.63;;;;;;;14.41;82.67;100313.91;5054505;28;20180;-69
2021/10/15 04:19:03;;;;;;;25.10;17.13;;;;;;;14.54;82.64;100325.47;5057694;28;20186;-68
2021/10/15 04:21:28;;;;;;;22.93;16.93;;;;;;;14.65;81.94;100321.94;5055978;28;20195;-69
2021/10/15 04:23:53;;;;;;;22.10;15.30;;;;;;;14.57;81.55;100311.78;5054527;28;20172;-69
2021/10/15 04:26:18;;;;;;;21.87;16.03;;;;;;;14.49;82.38;100298.06;5055453;28;20282;-68
2021/10/15 04:28:44;;;;;;;20.97;14.40;;;;;;;14.57;81.52;100305.56;5055595;28;20180;-68
2021/10/15 04:31:10;;;;;;;20.13;14.67;;;;;;;14.67;80.89;100288.59;5056751;28;20191;-68
2021/10/15 04:33:35;;;;;;;19.03;13.77;;;;;;;14.77;80.87;100298.63;5055502;28;20242;-69
2021/10/15 04:36:00;;;;;;;21.80;15.00;;;;;;;14.70;81.11;100298.25;5055428;28;20198;-69
2021/10/15 04:38:25;;;;;;;22.13;15.60;;;;;;;14.52;81.33;100289.81;5070819;28;20179;-68
2021/10/15 04:40:51;;;;;;;22.30;14.60;;;;;;;14.55;81.81;100269.91;5055433;28;20221;-69
2021/10/15 04:43:16;;;;;;;18.97;13.87;;;;;;;14.68;80.94;100284.94;5055476;28;20197;-68
2021/10/15 04:45:41;;;;;;;22.33;13.80;;;;;;;14.64;81.83;100288.84;5055189;28;20171;-69
2021/10/15 04:48:07;;;;;;;16.73;13.33;;;;;;;14.39;82.01;100273.75;5055901;28;20240;-68
2021/10/15 04:50:36;;;;;;;21.83;14.33;;;;;;;14.68;81.52;100276.03;5055075;28;20176;-68
2021/10/15 04:53:03;;;;;;;17.63;14.13;;;;;;;14.62;81.50;100265.78;5055276;28;20237;-68
2021/10/15 04:55:28;;;;;;;17.40;12.53;;;;;;;14.37;81.89;100258.72;5053694;28;20191;-68
2021/10/15 04:57:57;;;;;;;21.40;13.53;;;;;;;14.59;81.71;100260.66;5054553;28;20176;-68
2021/10/15 05:00:22;;;;;;;18.40;13.27;;;;;;;14.55;81.47;100251.97;5054831;28;20571;-68
2021/10/15 05:02:49;;;;;;;16.00;12.70;;;;;;;14.63;81.45;100248.69;5054784;28;20201;-68
2021/10/15 05:05:16;;;;;;;15.27;12.23;;;;;;;14.24;81.69;100241.88;5059326;28;20645;-69
2021/10/15 05:07:42;;;;;;;20.93;12.57;;;;;;;14.50;81.12;100238.06;5058745;28;20168;-68
2021/10/15 05:10:10;;;;;;;16.87;12.50;;;;;;;14.02;82.66;100232.78;5057746;28;20233;-69
2021/10/15 05:12:35;;;;;;;16.40;12.40;;;;;;;14.39;81.71;100232.63;5060718;28;20191;-69
2021/10/15 05:15:00;;;;;;;23.33;12.87;;;;;;;14.38;82.35;100230.91;5059084;28;20202;-68
2021/10/15 05:17:26;;;;;;;17.70;11.80;;;;;;;14.24;83.29;100215.03;5055021;28;20172;-68
2021/10/15 05:19:51;;;;;;;16.70;12.83;;;;;;;14.19;83.19;100233.34;5054575;28;20533;-68
2021/10/15 05:22:16;;;;;;;16.43;12.43;;;;;;;14.12;83.17;100222.19;5055489;28;20561;-70
2021/10/15 05:24:42;;;;;;;15.70;12.30;;;;;;;14.13;83.31;100223.06;5058550;28;20191;-68
2021/10/15 05:27:07;;;;;;;16.97;12.33;;;;;;;14.03;83.82;100217.53;5059142;28;20218;-69
2021/10/15 05:29:32;;;;;;;17.00;11.47;;;;;;;14.33;82.88;100230.41;5057762;28;20225;-69
2021/10/15 05:31:57;;;;;;;16.47;10.83;;;;;;;14.42;81.89;100224.31;5069207;22;20230;-71
2021/10/15 05:34:23;;;;;;;17.47;12.00;;;;;;;14.34;82.25;100207.97;5073671;28;20692;-71
2021/10/15 05:36:48;;;;;;;16.27;10.47;;;;;;;14.56;81.47;100213.41;5072360;28;20544;-71
2021/10/15 05:39:14;;;;;;;14.87;11.10;;;;;;;14.41;81.87;100211.88;5055779;28;20232;-71
2021/10/15 05:41:39;;;;;;;16.80;10.87;;;;;;;14.39;81.53;100193.22;5073637;28;20179;-71
2021/10/15 05:44:05;;;;;;;17.00;10.60;;;;;;;14.16;81.94;100196.00;5055774;28;20210;-72
2021/10/15 05:46:30;;;;;;;13.17;10.07;;;;;;;14.31;81.66;100202.84;5038916;28;20179;-72
2021/10/15 05:48:55;;;;;;;15.40;11.53;;;;;;;14.26;81.87;100197.84;5055888;28;20189;-72
2021/10/15 05:51:22;;;;;;;15.30;9.90;;;;;;;14.36;81.11;100195.28;5073561;28;20183;-72
2021/10/15 05:53:50;;;;;;;13.57;9.73;;;;;;;14.36;81.22;100188.09;5073196;28;20699;-72
2021/10/15 05:56:37;;;;;;;12.23;9.27;;;;;;;14.50;80.53;100181.69;5073320;28;20171;-72
2021/10/15 05:59:05;;;;;;;14.97;10.23;;;;;;;14.56;80.63;100178.50;5059380;28;20155;-71
2021/10/15 06:01:32;;;;;;;12.30;9.30;;;;;;;14.33;81.55;100192.84;5055644;28;20579;-71
2021/10/15 06:04:17;;;;;;;13.97;9.17;;;;;;;14.24;81.75;100183.69;5055582;28;20171;-71
2021/10/15 06:07:56;;;;;;;13.03;9.53;;;;;;;14.43;81.02;100183.13;5058146;28;20601;-72
2021/10/15 06:14:02;;;;;;;12.17;8.43;;;;;;;14.56;80.35;100183.88;5057505;28;20183;-70
2021/10/15 06:15:12;;;;;;;13.47;8.70;;;;;;;14.85;79.09;100189.56;5072779;28;20348;-71
2021/10/15 06:17:43;;;;;;;13.40;8.67;;;;;;;14.36;80.63;100195.28;5073682;28;20203;-71
2021/10/15 06:20:10;;;;;;;11.70;8.50;;;;;;;14.54;80.45;100184.97;5072994;28;20162;-70
2021/10/15 06:22:35;;;;;;;13.10;8.07;;;;;;;14.35;80.92;100170.28;5072849;28;20195;-70
2021/10/15 06:25:01;;;;;;;12.33;8.53;;;;;;;14.85;79.40;100173.44;5072671;28;20171;-70
2021/10/15 06:27:26;;;;;;;15.60;7.80;;;;;;;14.62;80.02;100178.00;5054980;28;20656;-71
2021/10/15 06:29:52;;;;;;;15.13;8.17;;;;;;;14.59;80.25;100180.09;5072743;28;20186;-70
2021/10/15 06:32:18;;;;;;;11.83;7.70;;;;;;;14.48;80.55;100170.16;5054619;28;20206;-72
2021/10/15 06:34:45;;;;;;;10.77;7.37;;;;;;;14.12;82.39;100183.78;5055211;28;20193;-71
2021/10/15 06:37:10;;;;;;;10.80;7.20;;;;;;;14.75;79.88;100160.88;5037938;28;20186;-72
2021/10/15 06:39:35;;;;;;;15.83;7.33;;;;;;;14.31;80.04;100154.53;5054759;28;20178;-71
2021/10/15 06:42:01;;;;;;;12.40;8.07;;;;;;;14.69;79.42;100164.94;5073257;28;20252;-72
2021/10/15 06:44:26;;;;;;;11.97;8.37;;;;;;;14.88;78.96;100148.19;5054579;28;20533;-71
2021/10/15 06:46:52;;;;;;;14.03;7.83;;;;;;;14.91;78.28;100150.63;5054564;28;20270;-71
2021/10/15 06:49:18;;;;;;;11.63;7.87;;;;;;;14.27;80.68;100155.75;5072820;28;20262;-71
2021/10/15 06:51:43;;;;;;;11.20;6.53;;;;;;;14.27;81.36;100140.50;5054574;28;20179;-71
2021/10/15 06:54:08;;;;;;;10.60;7.13;;;;;;;14.64;79.97;100143.81;5072326;28;20556;-71
2021/10/15 06:56:34;;;;;;;12.80;7.80;;;;;;;14.57;80.40;100131.00;5072680;28;20171;-71
2021/10/15 06:58:59;;;;;;;14.50;7.17;;;;;;;14.66;79.93;100146.38;5074117;28;20170;-71
2021/10/15 07:01:25;;;;;;;9.40;6.77;;;;;;;14.69;79.42;100119.28;5072961;28;20228;-71
2021/10/15 07:03:50;;;;;;;10.90;6.63;;;;;;;14.38;79.84;100132.44;5054365;28;20191;-71
2021/10/15 07:06:15;;;;;;;10.30;7.10;;;;;;;15.14;78.03;100149.56;5072655;28;20181;-71
2021/10/15 07:08:40;;;;;;;11.77;6.67;;;;;;;14.63;79.11;100136.75;5072347;28;20175;-71
2021/10/15 07:11:06;;;;;;;11.37;6.53;;;;;;;15.01;77.76;100135.44;5072700;28;20179;-71
2021/10/15 07:13:31;;;;;;;10.97;6.87;;;;;;;14.66;79.08;100125.75;5072633;28;20750;-70
2021/10/15 07:15:57;;;;;;;8.80;6.43;;;;;;;14.65;78.57;100136.63;5054557;28;20202;-71
2021/10/15 07:18:22;;;;;;;10.00;6.30;;;;;;;14.79;79.35;100114.00;5054581;28;20182;-71
2021/10/15 07:20:47;;;;;;;9.20;6.30;;;;;;;14.73;78.84;100114.50;5057874;28;20633;-70
2021/10/15 07:23:14;;;;;;;8.40;6.50;;;;;;;14.63;78.81;100119.78;5057869;28;20194;-71
2021/10/15 07:25:39;;;;;;;11.93;6.57;;;;;;;15.04;78.25;100127.13;5058025;28;20258;-71
2021/10/15 07:28:06;;;;;;;8.60;6.30;;;;;;;15.02;78.26;100134.47;5057820;28;20697;-71
2021/10/15 07:30:31;;;;;;;7.57;5.63;;;;;;;14.85;78.19;100135.84;5075974;28;20583;-71
2021/10/15 07:32:56;;;;;;;7.27;5.73;;;;;;;15.47;77.46;100153.13;5057773;28;20198;-71
2021/10/15 07:35:22;;;;;;;10.47;6.10;;;;;;;15.43;77.07;100152.53;5075790;28;20205;-72
2021/10/15 07:37:47;;;;;;;9.53;6.40;;;;;;;15.24;77.37;100141.63;5075589;28;20182;-71
2021/10/15 07:40:12;;;;;;;8.03;5.53;;;;;;;15.03;77.93;100122.75;5057830;28;20629;-71
2021/10/15 07:42:38;;;;;;;8.80;5.63;;;;;;;14.93;78.42;100133.41;5075711;28;20199;-71
2021/10/15 07:45:04;;;;;;;7.90;5.07;;;;;;;15.06;78.28;100127.84;5057600;28;20214;-71
2021/10/15 07:47:29;;;;;;;12.97;5.90;;;;;;;15.21;77.76;100153.47;5040744;28;20185;-71
2021/10/15 07:49:54;;;;;;;7.80;5.77;;;;;;;15.30;77.20;100124.97;5075892;28;20562;-71
2021/10/15 07:52:20;;;;;;;10.00;5.70;;;;;;;15.23;78.01;100116.53;5075526;28;20205;-71
2021/10/15 07:54:45;;;;;;;8.73;5.43;;;;;;;15.49;75.84;100110.81;5057854;28;20195;-72
2021/10/15 07:57:12;;;;;;;10.17;5.20;;;;;;;15.09;78.05;100122.22;5057492;28;20171;-71
2021/10/15 07:59:38;;;;;;;8.10;5.17;;;;;;;15.49;76.04;100121.59;5057778;28;20174;-71
2021/10/15 08:02:03;;;;;;;6.77;5.07;;;;;;;15.20;76.67;100122.19;5057681;28;20206;-71
2021/10/15 08:04:28;;;;;;;9.30;5.03;;;;;;;15.40;76.18;100117.84;5057312;28;20663;-71
2021/10/15 08:06:54;;;;;;;7.33;4.90;;;;;;;15.31;76.27;100100.66;5075455;28;20190;-71
2021/10/15 08:09:19;;;;;;;6.30;4.83;;;;;;;15.35;76.63;100113.84;5057310;28;20175;-71
2021/10/15 08:11:45;;;;;;;7.63;5.33;;;;;;;15.38;76.58;100097.44;5056920;28;20270;-71
2021/10/15 08:14:10;;;;;;;8.37;4.83;;;;;;;15.71;75.74;100108.06;5074708;28;20259;-71
2021/10/15 08:16:35;;;;;;;8.13;5.27;;;;;;;15.54;76.23;100108.59;5075240;28;20202;-71
2021/10/15 08:19:00;;;;;;;7.17;4.77;;;;;;;15.36;76.19;100105.63;5057309;28;20175;-71
2021/10/15 08:21:26;;;;;;;8.07;4.60;;;;;;;15.34;76.45;100112.97;5041121;28;20187;-72
2021/10/15 08:23:51;;;;;;;12.00;5.07;;;;;;;15.18;76.81;100121.47;5041217;28;20667;-71
2021/10/15 08:26:16;;;;;;;6.60;4.27;;;;;;;15.22;77.16;100112.16;5056803;28;20171;-70
2021/10/15 08:28:42;;;;;;;8.70;5.03;;;;;;;15.29;76.92;100113.38;5056550;28;20179;-71
2021/10/15 08:31:08;;;;;;;8.97;5.07;;;;;;;15.17;76.95;100117.06;5073715;28;20179;-71
2021/10/15 08:33:33;;;;;;;12.13;5.50;;;;;;;15.07;77.84;100107.22;5074258;28;20267;-71
2021/10/15 08:35:58;;;;;;;11.50;5.07;;;;;;;14.57;79.81;100110.38;5056863;28;20174;-71
2021/10/15 08:38:24;;;;;;;9.97;5.33;;;;;;;14.64;80.61;100130.38;5056544;28;20192;-70
2021/10/15 08:40:49;;;;;;;12.23;5.70;;;;;;;14.47;82.19;100116.59;5040103;28;20171;-70
2021/10/15 08:43:15;;;;;;;7.57;5.93;;;;;;;14.26;84.42;100136.09;5056262;28;20191;-71
2021/10/15 08:45:40;;;;;;;9.23;5.97;;;;;;;14.15;86.06;100121.84;5056666;28;20167;-70
2021/10/15 08:48:06;;;;;;;11.20;6.23;;;;;;;14.03;87.15;100116.44;5056430;28;20189;-71
2021/10/15 08:50:32;;;;;;;9.47;6.17;;;;;;;13.81;87.83;100119.09;5056438;28;20664;-71
2021/10/15 08:52:58;;;;;;;13.10;6.23;;;;;;;13.68;90.66;100132.59;5056360;28;20195;-71
2021/10/15 08:55:24;;;;;;;13.43;6.60;;;;;;;13.85;89.43;100139.34;5056176;28;20202;-70
2021/10/15 08:57:56;;;;;;;9.00;5.90;;;;;;;13.97;89.54;100135.69;5056339;28;20174;-71
2021/10/15 09:00:42;;;;;;;8.50;6.17;;;;;;;13.91;88.84;100138.88;5056498;28;20202;-71
2021/10/15 09:03:11;;;;;;;13.10;7.47;;;;;;;13.68;92.46;100161.22;5056292;28;20245;-70
2021/10/15 09:05:36;;;;;;;8.77;6.73;;;;;;;13.72;91.16;100133.19;5074491;28;20174;-70
2021/10/15 09:08:03;;;;;;;12.90;7.33;;;;;;;13.64;93.12;100149.03;5074011;28;20179;-70
2021/10/15 09:10:30;;;;;;;16.00;8.90;;;;;;;13.81;93.73;100171.91;5039577;28;20206;-70
2021/10/15 09:12:58;;;;;;;17.97;7.87;;;;;;;13.71;93.91;100167.22;5055985;28;20195;-71
2021/10/15 09:15:34;;;;;;;15.57;8.63;;;;;;;14.03;94.73;100174.63;5055787;28;20237;-70
2021/10/15 09:18:16;;;;;;;14.67;9.07;;;;;;;13.80;94.92;100165.69;5039130;28;20171;-70
2021/10/15 09:20:42;;;;;;;10.57;8.27;;;;;;;13.29;97.66;100176.66;5056055;28;20633;-71
2021/10/15 09:23:08;;;;;;;11.53;7.47;;;;;;;13.66;96.38;100174.75;5056324;28;20202;-71
2021/10/15 09:25:41;;;;;;;15.57;9.37;;;;;;;13.76;96.55;100174.94;5073670;28;20573;-71
2021/10/15 09:28:15;;;;;;;12.07;8.30;;;;;;;13.79;96.28;100180.06;5039761;28;20682;-71
2021/10/15 09:30:42;;;;;;;12.83;7.77;;;;;;;13.76;96.20;100178.47;5056702;28;20167;-69
2021/10/15 09:33:08;;;;;;;14.50;8.80;;;;;;;13.74;97.06;100185.75;5074258;28;20233;-69
2021/10/15 09:35:33;;;;;;;10.57;8.00;;;;;;;13.56;96.85;100194.34;5056393;28;20669;-71
2021/10/15 09:38:01;;;;;;;15.50;9.47;;;;;;;13.74;96.86;100199.16;5073891;28;20170;-70
2021/10/15 09:40:33;;;;;;;18.43;8.90;;;;;;;13.74;97.21;100176.84;5039249;28;20632;-69
2021/10/15 09:43:02;;;;;;;12.63;8.40;;;;;;;13.28;99.39;100244.63;5039103;28;20202;-69
2021/10/15 09:45:37;;;;;;;6.77;3.20;;;;;;;13.11;94.87;100234.28;5056213;28;20244;-70
2021/10/15 09:48:19;;;;;;;3.30;1.10;;;;;;;12.36;95.40;100250.31;5074286;28;20520;-70
2021/10/15 09:50:44;;;;;;;2.37;1.43;;;;;;;12.11;97.07;100275.22;5073200;28;20174;-71
2021/10/15 09:53:10;;;;;;;5.20;1.37;;;;;;;12.24;97.70;100277.91;5073873;28;20687;-71
2021/10/15 09:55:42;;;;;;;3.50;1.33;;;;;;;12.35;96.16;100275.38;5055419;28;20210;-71
2021/10/15 09:58:12;;;;;;;6.00;1.50;;;;;;;12.82;95.95;100281.91;5038646;28;20177;-71
2021/10/15 10:00:38;;;;;;;3.20;1.37;;;;;;;12.65;95.45;100285.78;5055410;28;20640;-71
2021/10/15 10:03:04;;;;;;;2.60;1.27;;;;;;;12.92;94.68;100293.66;5055288;28;20264;-70
2021/10/15 10:05:30;;;;;;;3.20;1.30;;;;;;;12.93;95.74;100295.38;5038753;28;20175;-70
2021/10/15 10:07:56;;;;;;;2.67;1.00;;;;;;;12.75;95.12;100313.59;5074303;28;20264;-70
2021/10/15 10:10:24;;;;;;;4.40;1.40;;;;;;;12.79;96.13;100323.13;5056428;28;20170;-71
2021/10/15 10:12:50;;;;;;;3.50;1.20;;;;;;;12.64;95.03;100318.00;5055330;28;20226;-71
2021/10/15 10:15:19;;;;;;;4.50;1.10;;;;;;;13.15;93.79;100316.13;5073048;28;20240;-71
2021/10/15 10:17:50;;;;;;;2.70;0.90;;;;;;;13.26;94.29;100324.28;5055374;28;20552;-71
2021/10/15 10:20:21;;;;;;;2.83;1.23;;;;;;;12.91;93.44;100307.16;5054932;28;20187;-71
2021/10/15 10:22:53;;;;;;;2.97;1.20;;;;;;;13.39;93.69;100308.19;5055005;28;20198;-70
2021/10/15 10:25:22;;;;;;;2.10;0.90;;;;;;;13.33;92.72;100314.84;5055597;28;20166;-70
2021/10/15 10:27:47;;;;;;;1.80;1.00;;;;;;;13.00;93.76;100323.44;5038761;28;20174;-70
2021/10/15 10:30:12;;;;;;;3.10;0.93;;;;;;;12.71;93.08;100316.63;5054858;28;20185;-70
2021/10/15 10:32:38;;;;;;;5.87;1.17;;;;;;;12.84;93.18;100320.13;5072480;28;20652;-71
2021/10/15 10:35:23;;;;;;;2.67;0.90;;;;;;;12.65;93.82;100336.63;5072630;28;20675;-72
2021/10/15 10:37:50;;;;;;;5.00;1.10;;;;;;;12.00;95.28;100333.94;5038450;28;20171;-72
2021/10/15 10:40:15;;;;;;;1.67;0.53;;;;;;;12.26;94.51;100339.34;5055062;28;20175;-72
2021/10/15 10:43:01;;;;;;;4.20;0.83;;;;;;;12.50;94.91;100351.06;5055430;28;20561;-74
2021/10/15 10:45:27;;;;;;;1.60;0.90;;;;;;;12.65;93.80;100358.06;5038525;28;20169;-77
2021/10/15 10:48:02;;;;;;;7.27;1.33;;;;;;;12.84;93.25;100365.66;5037999;28;20179;-73
2021/10/15 10:50:28;;;;;;;8.33;1.30;;;;;;;12.78;93.01;100366.94;5072769;28;20178;-73
2021/10/15 10:52:53;;;;;;;3.60;1.10;;;;;;;12.84;92.69;100361.16;5054600;28;20694;-73
2021/10/15 10:55:35;;;;;;;3.57;1.03;;;;;;;12.96;92.93;100356.75;5057046;28;20202;-74
2021/10/15 10:58:00;;;;;;;3.10;1.27;;;;;;;12.98;92.66;100354.81;5076669;28;20171;-72
2021/10/15 11:00:28;;;;;;;2.00;0.90;;;;;;;13.02;91.86;100363.53;5042179;28;20577;-72
2021/10/15 11:02:56;;;;;;;2.43;0.87;;;;;;;13.09;92.20;100375.53;5042423;28;20201;-72
2021/10/15 11:05:35;;;;;;;1.83;1.00;;;;;;;13.22;91.91;100388.94;5076754;28;20181;-72
2021/10/15 11:08:21;;;;;;;3.70;1.10;;;;;;;13.24;91.89;100390.53;5076378;28;20163;-73
2021/10/15 11:10:47;;;;;;;4.30;1.10;;;;;;;13.18;91.61;100401.69;5079556;28;20166;-73
2021/10/15 11:13:30;;;;;;;3.43;1.33;;;;;;;13.41;91.39;100389.34;5068753;28;20200;-73
2021/10/15 11:15:55;;;;;;;7.53;1.40;;;;;;;13.21;91.54;100384.53;5077694;28;20171;-73
2021/10/15 11:18:20;;;;;;;3.33;1.20;;;;;;;13.58;91.26;100385.44;5059115;28;20179;-73